Share

Plaisance, Maurice

23:34 MUT le 23 avril 2014 (GMT +0400)
Mauritius International (FIMP) Alt. 187 ft | 20.43 °S, 57.68 °E | Change Station

Current weather conditions updated 34 minutes ago

Scattered Clouds
Nuages épars
75 ° F
Paraît 75 ° F
N
2
Vent Variable Vent de Est
Lever du soleil 6:22 AM
Coucher du soleil 5:52 PM
Lune Lune descendante

Demain il est prévu de faire plus froid qu’aujourd’hui. Orages épars..

Pression 30.06 pouce
Visibilité 6.2 Miles terrestres
Nuages Nuages épars 1800 ft
Point de rosée 72 ° F
Humidité 89%
Précipitations 0.00 pouce
Profondeur de la couche neigeuse Non disponible.
UV 0 sur 16
Pollen Non disponible.
Qualité de l'air Non disponible.
Flu Activity Non disponible.
METAR FIMP 231900Z 10002KT 9999 SCT018 24/22 Q1018

More Conditions Fewer Conditions

Pression 30.06 pouce
Visibilité 6.2 Miles terrestres
Nuages Nuages épars 1800 ft
Point de rosée 72 ° F
Humidité 89%
Précipitations 0.00 pouce
Profondeur de la couche neigeuse Non disponible.
UV 0 sur 16
Pollen Non disponible.
Qualité de l'air Non disponible.
Flu Activity Non disponible.
METAR FIMP 231900Z 10002KT 9999 SCT018 24/22 Q1018

More Conditions Fewer Conditions

10-Day Weather Forecast

Almanac

Astronomie

Apr. 23, 2014 Lever Coucher
Temps réel 06:22 MUT 17:52 MUT
Crépuscule civil 06:00 MUT 18:14 MUT
Crépuscule nautique 05:34 MUT 18:40 MUT
Crépuscule astronomique 05:08 MUT 19:06 MUT
Lune 00:29 MUT 13:32 MUT
Durée de lumière visible 12h 14m
Longueur du jour
11h 29m
Tomorrow will be 1m 0s shorter.
Lune descendante, 33% of the Moon is Illuminated
Aujourd'hui
Lune descendante
avr 29
Nouveau
mai 6
Premier quartier
mai 14
Pleine lune
mai 21
Dernier quartier

Extrêmes aujourd'hui

Country Highs Country Lows

Community

  • Stunning Sunrise
    Stunning Sunrise
  • spring flowers
    spring flowers
  • Earth Day Spectrum Ove' Blue
    Earth Day Spectrum Ove' Blue
  • BARN B&W
    BARN B&W
  • April Sunset
    April Sunset

WunderPhotos

Upload Photos

1,704,389 Photos téléchargées !

WunderBlogs® & News

Nearby

Qualité de l'air

Not available.

Épaisseur de neige

Not available.

Températures des eaux côtières

Lieu Température
Aucun rapport de station

Activité sismique

Ville Distance Mag. Time & Date
No recent earthquake activity has been reported nearby.
Minimum magnitude displayed is 2.5.

Stations météo à proximité

Emplacement de la station Température indice de chaleur Point de rosée Humidité Vent Precip. Alt. Mise à jour Type
Maufox Station, Quatre Bornes 74.8 ° F 74 ° F 71 ° F 88% ESE  à  0.0 mph 0.00 pouce / hr 1050 ft 11:30 PM MUT Normal
Le Hochet, Port Louis 78.1 ° F 80 ° F 70 ° F 75% ESE  à  12.1 mph 0.00 pouce / hr 108 ft 10:55 PM MUT Rapid Fire (temps réel)

Show More Stations Show Fewer Stations

What do you think?

We're not finished. Please let us know what you like, what you don't like, and what you are still missing.